Time;durP1;ratioP1;P1;durP2;ratioP2;P2;SDS_P1;SDS_P2;PMS_P1;PMS_P2;Temp;Humidity;BMP_temperature;BMP_pressure;BME280_temperature;BME280_humidity;BME280_pressure;Samples;Min_cycle;Max_cycle;Signal;HPM_P1;HPM_P2
2024/05/08 00:02:16;;;;;;;8.77;3.53;;;;;;;;;;5385206;26;20000;-89
2024/05/08 00:04:42;;;;;;;6.85;2.92;;;;;;;;;;5355714;26;20024;-89
2024/05/08 00:07:09;;;;;;;7.07;3.60;;;;;;;;;;5356562;26;19997;-90
2024/05/08 00:09:35;;;;;;;9.70;3.20;;;;;;;;;;5356819;26;20545;-88
2024/05/08 00:12:06;;;;;;;8.55;2.92;;;;;;;;;;5357745;26;20065;-87
2024/05/08 00:14:34;;;;;;;8.02;3.63;;;;;;;;;;5358317;26;20000;-87
2024/05/08 00:17:00;;;;;;;5.78;3.08;;;;;;;;;;5370174;26;19996;-89
2024/05/08 00:19:26;;;;;;;6.82;3.22;;;;;;;;;;5389008;26;20000;-89
2024/05/08 00:21:52;;;;;;;7.32;3.35;;;;;;;;;;5389091;26;19992;-87
2024/05/08 00:24:18;;;;;;;11.50;3.30;;;;;;;;;;5359174;26;20004;-86
2024/05/08 00:26:46;;;;;;;6.70;3.35;;;;;;;;;;5354863;26;19993;-89
2024/05/08 00:29:12;;;;;;;5.22;2.90;;;;;;;;;;5353958;26;20001;-89
2024/05/08 00:31:38;;;;;;;5.63;3.40;;;;;;;;;;5355220;26;19996;-89
2024/05/08 00:34:04;;;;;;;5.13;2.90;;;;;;;;;;5386457;26;20000;-87
2024/05/08 00:36:30;;;;;;;7.80;2.75;;;;;;;;;;5388060;26;19999;-89
2024/05/08 00:38:56;;;;;;;5.93;3.10;;;;;;;;;;5389659;26;20010;-86
2024/05/08 00:41:22;;;;;;;7.25;3.15;;;;;;;;;;5390041;26;19997;-88
2024/05/08 00:43:48;;;;;;;6.18;3.25;;;;;;;;;;5389566;26;20004;-86
2024/05/08 00:46:14;;;;;;;5.88;2.92;;;;;;;;;;5387535;26;20004;-90
2024/05/08 00:48:41;;;;;;;3.47;2.70;;;;;;;;;;5387462;26;20027;-88
2024/05/08 00:51:10;;;;;;;8.65;3.17;;;;;;;;;;5388892;26;20073;-88
2024/05/08 00:53:38;;;;;;;5.55;3.05;;;;;;;;;;5363435;26;20066;-91
2024/05/08 00:56:04;;;;;;;9.05;3.10;;;;;;;;;;5325899;26;20008;-87
2024/05/08 00:58:30;;;;;;;4.93;2.95;;;;;;;;;;5355602;26;20042;-88
2024/05/08 01:00:56;;;;;;;8.00;3.00;;;;;;;;;;5353764;26;20025;-86
2024/05/08 01:03:22;;;;;;;7.65;2.88;;;;;;;;;;5354125;26;20012;-84
2024/05/08 01:05:48;;;;;;;5.03;3.15;;;;;;;;;;5354494;26;20000;-83
2024/05/08 01:08:17;;;;;;;7.28;3.38;;;;;;;;;;5362275;26;20007;-88
2024/05/08 01:10:43;;;;;;;4.43;3.05;;;;;;;;;;5387201;26;19996;-87
2024/05/08 01:13:10;;;;;;;7.22;3.40;;;;;;;;;;5370444;26;20005;-88
2024/05/08 01:15:43;;;;;;;6.43;2.75;;;;;;;;;;5323826;26;20012;-89
2024/05/08 01:18:11;;;;;;;6.72;2.80;;;;;;;;;;5362339;26;20072;-85
2024/05/08 01:20:45;;;;;;;3.88;2.75;;;;;;;;;;5388008;26;20046;-81
2024/05/08 01:23:12;;;;;;;6.72;2.88;;;;;;;;;;5381792;26;20063;-83
2024/05/08 01:25:39;;;;;;;7.28;3.13;;;;;;;;;;5385912;26;19996;-84
2024/05/08 01:28:05;;;;;;;5.85;2.92;;;;;;;;;;5364741;26;20008;-86
2024/05/08 01:30:31;;;;;;;5.25;2.78;;;;;;;;;;5350678;26;20005;-87
2024/05/08 01:32:57;;;;;;;4.10;2.70;;;;;;;;;;5350964;26;19997;-85
2024/05/08 01:35:23;;;;;;;4.80;2.80;;;;;;;;;;5350976;26;19993;-85
2024/05/08 01:37:49;;;;;;;6.93;3.22;;;;;;;;;;5359081;26;20000;-88
2024/05/08 01:40:16;;;;;;;12.88;3.28;;;;;;;;;;5376636;26;20043;-81
2024/05/08 01:42:43;;;;;;;4.13;2.97;;;;;;;;;;5349090;26;20051;-85
2024/05/08 01:45:09;;;;;;;6.38;2.78;;;;;;;;;;5348661;26;19996;-82
2024/05/08 01:47:35;;;;;;;5.57;2.60;;;;;;;;;;5356422;26;20004;-83
2024/05/08 01:50:01;;;;;;;4.75;3.03;;;;;;;;;;5382529;26;20003;-82
2024/05/08 01:52:28;;;;;;;7.15;3.05;;;;;;;;;;5382669;26;20000;-84
2024/05/08 01:54:54;;;;;;;5.75;2.72;;;;;;;;;;5383947;26;19992;-85
2024/05/08 01:57:20;;;;;;;4.90;2.97;;;;;;;;;;5384108;26;20078;-81
2024/05/08 01:59:48;;;;;;;11.32;2.75;;;;;;;;;;5382876;26;20003;-82
2024/05/08 02:02:14;;;;;;;3.58;2.50;;;;;;;;;;5384100;26;20007;-82
2024/05/08 02:04:40;;;;;;;4.65;3.03;;;;;;;;;;5382925;26;20007;-80
2024/05/08 02:07:06;;;;;;;7.18;3.17;;;;;;;;;;5357652;26;20071;-79
2024/05/08 02:09:32;;;;;;;5.13;3.25;;;;;;;;;;5380822;26;20096;-82
2024/05/08 02:12:00;;;;;;;5.28;2.85;;;;;;;;;;5385295;26;20000;-82
2024/05/08 02:14:26;;;;;;;6.32;2.72;;;;;;;;;;5383043;26;20004;-83
2024/05/08 02:16:53;;;;;;;4.38;2.97;;;;;;;;;;5382882;26;20066;-81
2024/05/08 02:19:19;;;;;;;4.38;2.80;;;;;;;;;;5349558;26;20020;-84
2024/05/08 02:21:45;;;;;;;3.90;3.00;;;;;;;;;;5347683;26;20012;-83
2024/05/08 02:24:11;;;;;;;5.28;3.10;;;;;;;;;;5347384;26;20004;-79
2024/05/08 02:26:37;;;;;;;5.43;2.95;;;;;;;;;;5368672;26;20000;-82
2024/05/08 02:29:03;;;;;;;5.68;3.22;;;;;;;;;;5383984;26;20192;-83
2024/05/08 02:31:29;;;;;;;4.43;2.65;;;;;;;;;;5382355;26;20007;-81
2024/05/08 02:33:55;;;;;;;9.77;3.50;;;;;;;;;;5382708;26;20000;-82
2024/05/08 02:36:21;;;;;;;5.05;3.00;;;;;;;;;;5381376;26;19992;-81
2024/05/08 02:38:47;;;;;;;7.20;3.40;;;;;;;;;;5358751;26;20107;-82
2024/05/08 02:41:13;;;;;;;6.18;2.72;;;;;;;;;;5348656;26;20070;-81
2024/05/08 02:43:39;;;;;;;5.82;3.42;;;;;;;;;;5366795;26;20034;-81
2024/05/08 02:46:05;;;;;;;7.43;2.80;;;;;;;;;;5383997;26;19996;-80
2024/05/08 02:48:31;;;;;;;5.35;3.40;;;;;;;;;;5363338;26;20020;-82
2024/05/08 02:51:00;;;;;;;5.35;3.17;;;;;;;;;;5351707;26;20064;-81
2024/05/08 02:53:26;;;;;;;10.05;3.28;;;;;;;;;;5381389;26;20328;-84
2024/05/08 02:55:52;;;;;;;7.07;3.60;;;;;;;;;;5380786;26;20033;-84
2024/05/08 02:58:18;;;;;;;6.30;3.40;;;;;;;;;;5383528;26;20024;-82
2024/05/08 03:00:44;;;;;;;7.13;3.10;;;;;;;;;;5381552;26;20000;-86
2024/05/08 03:03:10;;;;;;;7.70;3.05;;;;;;;;;;5383678;26;20008;-83
2024/05/08 03:05:36;;;;;;;6.15;3.05;;;;;;;;;;5363172;26;20017;-84
2024/05/08 03:08:02;;;;;;;5.28;3.08;;;;;;;;;;5349749;26;20434;-82
2024/05/08 03:10:29;;;;;;;9.50;3.60;;;;;;;;;;5349189;26;19993;-84
2024/05/08 03:12:57;;;;;;;6.93;3.17;;;;;;;;;;5347161;26;20005;-85
2024/05/08 03:15:23;;;;;;;6.15;3.25;;;;;;;;;;5347363;26;19997;-83
2024/05/08 03:17:49;;;;;;;5.85;3.33;;;;;;;;;;5362642;26;20345;-85
2024/05/08 03:20:15;;;;;;;4.60;2.95;;;;;;;;;;5358380;26;20441;-84
2024/05/08 03:22:41;;;;;;;7.38;3.58;;;;;;;;;;5353453;26;20001;-87
2024/05/08 03:25:07;;;;;;;5.25;3.42;;;;;;;;;;5385847;26;20069;-86
2024/05/08 03:27:33;;;;;;;5.75;3.50;;;;;;;;;;5383783;26;20341;-76
2024/05/08 03:29:59;;;;;;;4.22;3.13;;;;;;;;;;5387050;26;20012;-85
2024/05/08 03:32:25;;;;;;;5.60;3.83;;;;;;;;;;5386640;26;20000;-85
2024/05/08 03:34:51;;;;;;;7.03;3.40;;;;;;;;;;5386950;26;20412;-85
2024/05/08 03:37:17;;;;;;;4.93;2.72;;;;;;;;;;5367001;26;20005;-82
2024/05/08 03:39:43;;;;;;;7.93;3.90;;;;;;;;;;5364765;26;20076;-84
2024/05/08 03:42:09;;;;;;;5.47;3.45;;;;;;;;;;5351527;26;20000;-84
2024/05/08 03:44:35;;;;;;;5.47;3.25;;;;;;;;;;5350478;26;19997;-83
2024/05/08 03:47:01;;;;;;;7.30;3.50;;;;;;;;;;5376461;26;20000;-87
2024/05/08 03:49:27;;;;;;;12.52;4.18;;;;;;;;;;5371389;26;19993;-87
2024/05/08 03:51:53;;;;;;;7.82;3.67;;;;;;;;;;5350685;26;20005;-86
2024/05/08 03:54:19;;;;;;;6.82;4.00;;;;;;;;;;5351433;26;19997;-85
2024/05/08 03:56:45;;;;;;;12.45;4.68;;;;;;;;;;5352690;26;20029;-84
2024/05/08 03:59:11;;;;;;;11.13;4.03;;;;;;;;;;5364740;26;20335;-85
2024/05/08 04:01:39;;;;;;;9.48;3.67;;;;;;;;;;5386378;26;20000;-87
2024/05/08 04:04:05;;;;;;;12.75;3.55;;;;;;;;;;5386494;26;20449;-86
2024/05/08 04:06:31;;;;;;;7.28;3.72;;;;;;;;;;5368927;26;20341;-85
2024/05/08 04:08:57;;;;;;;11.80;4.07;;;;;;;;;;5353045;26;20007;-86
2024/05/08 04:11:23;;;;;;;12.05;4.43;;;;;;;;;;5364392;26;20081;-86
2024/05/08 04:13:51;;;;;;;11.85;4.15;;;;;;;;;;5390754;26;19999;-83
2024/05/08 04:16:17;;;;;;;16.75;4.70;;;;;;;;;;5362698;26;20001;-85
2024/05/08 04:18:46;;;;;;;11.18;4.63;;;;;;;;;;5357319;26;19997;-85
2024/05/08 04:21:13;;;;;;;11.32;4.15;;;;;;;;;;5355178;26;20058;-89
2024/05/08 04:23:39;;;;;;;5.72;4.50;;;;;;;;;;5356620;26;20001;-85
2024/05/08 04:26:08;;;;;;;10.60;4.10;;;;;;;;;;5356055;26;19997;-86
2024/05/08 04:28:35;;;;;;;8.77;4.75;;;;;;;;;;5358835;26;20385;-86
2024/05/08 04:31:01;;;;;;;13.30;5.68;;;;;;;;;;5353504;26;20315;-86
2024/05/08 04:33:27;;;;;;;16.40;5.40;;;;;;;;;;5353271;26;20025;-87
2024/05/08 04:35:53;;;;;;;6.93;4.43;;;;;;;;;;5359841;26;19997;-85
2024/05/08 04:38:19;;;;;;;9.25;4.80;;;;;;;;;;5353172;26;20073;-85
2024/05/08 04:40:45;;;;;;;13.07;5.43;;;;;;;;;;5357594;26;20383;-82
2024/05/08 04:43:11;;;;;;;11.02;4.38;;;;;;;;;;5355728;26;20012;-83
2024/05/08 04:45:37;;;;;;;15.73;5.28;;;;;;;;;;5371078;26;20041;-87
2024/05/08 04:48:04;;;;;;;15.07;4.78;;;;;;;;;;5351605;26;20005;-82
2024/05/08 04:50:31;;;;;;;14.98;4.82;;;;;;;;;;5351427;26;19992;-82
2024/05/08 04:52:57;;;;;;;11.73;4.57;;;;;;;;;;5351093;26;20013;-81
2024/05/08 04:55:23;;;;;;;10.05;4.60;;;;;;;;;;5381870;26;20139;-82
2024/05/08 04:57:50;;;;;;;13.07;4.85;;;;;;;;;;5384130;26;20058;-81
2024/05/08 05:00:16;;;;;;;18.42;5.25;;;;;;;;;;5385242;26;19992;-82
2024/05/08 05:02:42;;;;;;;16.08;4.90;;;;;;;;;;5384244;26;20036;-82
2024/05/08 05:05:08;;;;;;;20.92;6.10;;;;;;;;;;5374141;26;20000;-87
2024/05/08 05:07:34;;;;;;;14.48;5.25;;;;;;;;;;5364196;26;20076;-84
2024/05/08 05:10:01;;;;;;;13.80;4.60;;;;;;;;;;5363487;26;20032;-82
2024/05/08 05:12:27;;;;;;;7.95;4.68;;;;;;;;;;5373680;26;20001;-85
2024/05/08 05:14:53;;;;;;;12.25;4.75;;;;;;;;;;5367192;26;20011;-82
2024/05/08 05:17:19;;;;;;;7.70;4.20;;;;;;;;;;5383324;26;20003;-82
2024/05/08 05:19:45;;;;;;;10.27;4.45;;;;;;;;;;5382920;26;20000;-78
2024/05/08 05:22:11;;;;;;;14.52;5.00;;;;;;;;;;5376802;26;20016;-78
2024/05/08 05:24:37;;;;;;;7.43;4.75;;;;;;;;;;5382931;26;20016;-79
2024/05/08 05:27:03;;;;;;;10.43;4.57;;;;;;;;;;5383057;26;19992;-79
2024/05/08 05:29:29;;;;;;;6.60;4.10;;;;;;;;;;5383163;26;20000;-80
2024/05/08 05:34:40;;;;;;;9.85;4.07;;;;;;;;;;5354391;26;20019;-81
2024/05/08 05:37:06;;;;;;;6.25;4.15;;;;;;;;;;5347156;26;19997;-81
2024/05/08 05:39:33;;;;;;;9.98;4.43;;;;;;;;;;5347522;26;20011;-78
2024/05/08 05:47:28;;;;;;;9.13;4.20;;;;;;;;;;5382260;26;20077;-78
2024/05/08 05:49:57;;;;;;;10.27;4.05;;;;;;;;;;5384151;26;20008;-80
2024/05/08 05:52:24;;;;;;;8.85;4.35;;;;;;;;;;5367435;26;20016;-78
2024/05/08 05:54:50;;;;;;;9.77;3.90;;;;;;;;;;5349293;26;20013;-78
2024/05/08 05:57:16;;;;;;;11.77;4.82;;;;;;;;;;5353553;26;20009;-79
2024/05/08 05:59:42;;;;;;;9.57;3.95;;;;;;;;;;5369555;26;20000;-78
2024/05/08 06:02:08;;;;;;;12.98;4.10;;;;;;;;;;5382402;26;20003;-76
2024/05/08 06:04:34;;;;;;;12.77;4.10;;;;;;;;;;5381422;26;19996;-79
2024/05/08 06:07:02;;;;;;;10.13;3.85;;;;;;;;;;5383852;26;19988;-79
2024/05/08 06:09:28;;;;;;;7.28;3.90;;;;;;;;;;5373897;26;20008;-79
2024/05/08 06:11:58;;;;;;;7.57;4.18;;;;;;;;;;5381394;26;20038;-79
2024/05/08 06:14:24;;;;;;;4.95;3.67;;;;;;;;;;5383075;26;20016;-79
2024/05/08 06:16:50;;;;;;;9.93;4.22;;;;;;;;;;5381374;26;20045;-78
2024/05/08 06:19:16;;;;;;;8.77;3.95;;;;;;;;;;5378790;26;19992;-78
2024/05/08 06:21:42;;;;;;;8.20;4.60;;;;;;;;;;5368669;26;20005;-79
2024/05/08 06:24:08;;;;;;;8.70;4.55;;;;;;;;;;5345768;26;19997;-78
2024/05/08 06:26:39;;;;;;;9.68;4.95;;;;;;;;;;5348549;26;20012;-81
2024/05/08 06:29:08;;;;;;;9.30;4.70;;;;;;;;;;5352562;26;20073;-78
2024/05/08 06:31:38;;;;;;;10.30;4.78;;;;;;;;;;5352590;26;20011;-78
2024/05/08 06:34:04;;;;;;;8.30;5.43;;;;;;;;;;5370886;26;20005;-79
2024/05/08 06:36:32;;;;;;;9.13;5.20;;;;;;;;;;5351798;26;20449;-79
2024/05/08 06:38:58;;;;;;;8.57;4.90;;;;;;;;;;5380692;26;20074;-79
2024/05/08 06:41:24;;;;;;;8.75;5.03;;;;;;;;;;5382916;26;20039;-79
2024/05/08 06:43:50;;;;;;;5.68;4.78;;;;;;;;;;5380280;26;20047;-79
2024/05/08 06:46:17;;;;;;;9.68;6.05;;;;;;;;;;5354252;26;20430;-81
2024/05/08 06:48:43;;;;;;;9.30;5.40;;;;;;;;;;5372028;26;20091;-79
2024/05/08 06:51:09;;;;;;;14.85;6.00;;;;;;;;;;5364602;26;20355;-78
2024/05/08 06:53:35;;;;;;;8.00;5.45;;;;;;;;;;5346806;26;20538;-79
2024/05/08 06:56:02;;;;;;;10.60;6.10;;;;;;;;;;5371971;26;20024;-78
2024/05/08 06:58:28;;;;;;;8.55;5.95;;;;;;;;;;5371150;26;20134;-77
2024/05/08 07:00:54;;;;;;;8.43;6.30;;;;;;;;;;5380053;26;20069;-76
2024/05/08 07:03:20;;;;;;;6.65;5.38;;;;;;;;;;5349851;26;19997;-77
2024/05/08 07:05:47;;;;;;;12.13;7.13;;;;;;;;;;5345645;26;20016;-77
2024/05/08 07:08:13;;;;;;;8.88;5.50;;;;;;;;;;5347603;26;20013;-80
2024/05/08 07:10:39;;;;;;;9.00;5.35;;;;;;;;;;5356251;26;20022;-79
2024/05/08 07:13:07;;;;;;;9.88;5.55;;;;;;;;;;5365459;26;20004;-82
2024/05/08 07:15:33;;;;;;;11.05;6.38;;;;;;;;;;5380498;26;20019;-83
2024/05/08 07:17:59;;;;;;;8.45;6.18;;;;;;;;;;5383564;26;20000;-83
2024/05/08 07:20:25;;;;;;;9.13;6.00;;;;;;;;;;5384181;26;20001;-82
2024/05/08 07:22:51;;;;;;;8.25;5.43;;;;;;;;;;5381819;26;20004;-82
2024/05/08 07:25:17;;;;;;;8.95;6.57;;;;;;;;;;5382314;26;20004;-83
2024/05/08 07:27:43;;;;;;;12.07;5.75;;;;;;;;;;5376346;26;20012;-83
2024/05/08 07:30:09;;;;;;;7.38;5.70;;;;;;;;;;5383978;26;20077;-81
2024/05/08 07:32:36;;;;;;;8.75;7.03;;;;;;;;;;5383159;26;20004;-81
2024/05/08 07:35:02;;;;;;;11.38;6.55;;;;;;;;;;5380968;26;20000;-82
2024/05/08 07:37:28;;;;;;;8.50;6.03;;;;;;;;;;5363026;26;20015;-82
2024/05/08 07:39:55;;;;;;;7.15;5.00;;;;;;;;;;5381993;26;20008;-83
2024/05/08 07:42:21;;;;;;;8.52;6.13;;;;;;;;;;5374145;26;19996;-82
2024/05/08 07:44:47;;;;;;;8.93;6.18;;;;;;;;;;5384771;26;20007;-79
2024/05/08 07:47:13;;;;;;;11.48;6.40;;;;;;;;;;5384510;26;20033;-82
2024/05/08 07:49:39;;;;;;;11.82;6.82;;;;;;;;;;5383188;26;19996;-84
2024/05/08 07:52:05;;;;;;;15.57;7.25;;;;;;;;;;5381825;26;19997;-80
2024/05/08 07:54:32;;;;;;;11.75;5.50;;;;;;;;;;5368330;26;20083;-84
2024/05/08 07:56:58;;;;;;;9.80;6.70;;;;;;;;;;5348310;26;20527;-80
2024/05/08 07:59:24;;;;;;;9.60;5.70;;;;;;;;;;5383586;26;20008;-88
2024/05/08 08:01:51;;;;;;;9.77;5.93;;;;;;;;;;5390645;26;20310;-82
2024/05/08 08:04:17;;;;;;;8.68;6.90;;;;;;;;;;5378642;26;20464;-84
2024/05/08 08:06:46;;;;;;;9.85;5.40;;;;;;;;;;5368469;26;20015;-81
2024/05/08 08:09:12;;;;;;;7.82;5.68;;;;;;;;;;5390451;26;19996;-81
2024/05/08 08:11:42;;;;;;;12.02;5.57;;;;;;;;;;5363445;26;20001;-87
2024/05/08 08:14:09;;;;;;;9.48;5.70;;;;;;;;;;5388078;26;19996;-79
2024/05/08 08:16:35;;;;;;;7.43;5.32;;;;;;;;;;5391728;26;20000;-80
2024/05/08 08:19:01;;;;;;;9.20;6.38;;;;;;;;;;5393412;26;20012;-84
2024/05/08 08:21:29;;;;;;;6.90;5.28;;;;;;;;;;5393404;26;20083;-81
2024/05/08 08:23:55;;;;;;;6.25;4.60;;;;;;;;;;5387977;26;20001;-85
2024/05/08 08:26:21;;;;;;;6.45;3.97;;;;;;;;;;5388231;26;20469;-81
2024/05/08 08:28:47;;;;;;;9.13;4.65;;;;;;;;;;5368470;26;20446;-80
2024/05/08 08:31:13;;;;;;;10.98;5.15;;;;;;;;;;5378803;26;20007;-80
2024/05/08 08:33:39;;;;;;;6.45;4.47;;;;;;;;;;5345862;26;20016;-87
2024/05/08 08:36:06;;;;;;;8.73;5.53;;;;;;;;;;5388538;26;20000;-81
2024/05/08 08:38:34;;;;;;;6.90;4.80;;;;;;;;;;5388911;26;20012;-81
2024/05/08 08:41:06;;;;;;;6.78;2.88;;;;;;;;;;5379207;26;20118;-80
2024/05/08 08:43:34;;;;;;;7.10;4.78;;;;;;;;;;5354935;26;20005;-85
2024/05/08 08:46:01;;;;;;;9.02;5.15;;;;;;;;;;5344111;26;19996;-83
2024/05/08 08:48:27;;;;;;;8.10;5.72;;;;;;;;;;5380870;26;20012;-79
2024/05/08 08:50:54;;;;;;;9.18;5.95;;;;;;;;;;5385142;26;20008;-79
2024/05/08 08:53:22;;;;;;;8.48;5.57;;;;;;;;;;5375008;26;20001;-78
2024/05/08 08:55:48;;;;;;;7.88;6.20;;;;;;;;;;5369305;26;20000;-78
2024/05/08 08:58:15;;;;;;;9.82;5.80;;;;;;;;;;5382597;26;19996;-82
2024/05/08 09:00:52;;;;;;;8.85;5.55;;;;;;;;;;5384529;26;20007;-79
2024/05/08 09:03:22;;;;;;;4.32;2.85;;;;;;;;;;5384613;26;20004;-83
2024/05/08 09:05:52;;;;;;;10.07;5.82;;;;;;;;;;5347778;26;20011;-78
2024/05/08 09:08:22;;;;;;;11.35;7.00;;;;;;;;;;5384503;26;19996;-78
2024/05/08 09:10:55;;;;;;;10.73;6.40;;;;;;;;;;5377833;26;20000;-79
2024/05/08 09:13:21;;;;;;;8.38;6.05;;;;;;;;;;5354022;26;19997;-82
2024/05/08 09:15:49;;;;;;;9.02;6.45;;;;;;;;;;5367715;26;20445;-80
2024/05/08 09:18:16;;;;;;;10.63;6.00;;;;;;;;;;5372508;26;19992;-78
2024/05/08 09:20:44;;;;;;;9.20;6.40;;;;;;;;;;5379135;26;20337;-79
2024/05/08 09:23:12;;;;;;;7.22;5.65;;;;;;;;;;5383202;26;20015;-79
2024/05/08 09:25:39;;;;;;;15.82;6.35;;;;;;;;;;5373471;26;20441;-83
2024/05/08 09:28:07;;;;;;;10.13;6.55;;;;;;;;;;5381675;26;20019;-80
2024/05/08 09:30:33;;;;;;;12.38;5.82;;;;;;;;;;5376082;26;19996;-80
2024/05/08 09:33:03;;;;;;;9.77;6.78;;;;;;;;;;5384907;26;20012;-84
2024/05/08 09:35:31;;;;;;;7.72;5.70;;;;;;;;;;5374794;26;20024;-78
2024/05/08 09:37:59;;;;;;;10.13;6.25;;;;;;;;;;5381505;26;20445;-78
2024/05/08 09:40:29;;;;;;;9.88;7.40;;;;;;;;;;5339686;26;20000;-83
2024/05/08 09:42:58;;;;;;;15.80;7.57;;;;;;;;;;5371749;26;20016;-83
2024/05/08 09:45:24;;;;;;;7.85;6.43;;;;;;;;;;5367514;26;20004;-79
2024/05/08 09:47:51;;;;;;;11.35;6.82;;;;;;;;;;5380794;26;20004;-79
2024/05/08 09:50:19;;;;;;;10.10;5.90;;;;;;;;;;5375725;26;20030;-79
2024/05/08 09:52:55;;;;;;;10.55;5.95;;;;;;;;;;5371603;26;20419;-81
2024/05/08 09:55:23;;;;;;;9.85;6.88;;;;;;;;;;5381258;26;20040;-77
2024/05/08 09:57:49;;;;;;;10.50;6.57;;;;;;;;;;5368156;26;20075;-79
2024/05/08 10:00:16;;;;;;;13.40;6.38;;;;;;;;;;5376356;26;20035;-81
2024/05/08 10:02:44;;;;;;;10.45;7.50;;;;;;;;;;5380758;26;20347;-81
2024/05/08 10:05:10;;;;;;;12.57;7.57;;;;;;;;;;5382591;26;20290;-80
2024/05/08 10:07:55;;;;;;;13.35;8.05;;;;;;;;;;5382935;26;20085;-79
2024/05/08 10:10:21;;;;;;;9.43;7.68;;;;;;;;;;5377461;26;20458;-81
2024/05/08 10:12:47;;;;;;;11.95;7.60;;;;;;;;;;5381845;26;20004;-84
2024/05/08 10:15:14;;;;;;;13.05;8.82;;;;;;;;;;5383813;26;19997;-81
2024/05/08 10:17:54;;;;;;;11.75;8.75;;;;;;;;;;5381570;26;20000;-78
2024/05/08 10:20:26;;;;;;;11.50;8.80;;;;;;;;;;5371438;26;20009;-78
2024/05/08 10:23:02;;;;;;;11.45;8.40;;;;;;;;;;5375328;26;20004;-80
2024/05/08 10:25:29;;;;;;;11.77;8.88;;;;;;;;;;5375304;26;20092;-80
2024/05/08 10:27:56;;;;;;;12.40;8.95;;;;;;;;;;5354034;26;20028;-77
2024/05/08 10:30:25;;;;;;;10.15;7.38;;;;;;;;;;5363125;26;20000;-78
2024/05/08 10:32:52;;;;;;;10.23;6.85;;;;;;;;;;5345411;26;20075;-79
2024/05/08 10:35:19;;;;;;;10.15;7.20;;;;;;;;;;5346050;26;20005;-82
2024/05/08 10:37:45;;;;;;;8.70;7.07;;;;;;;;;;5343054;26;20461;-79
2024/05/08 10:40:11;;;;;;;8.18;6.80;;;;;;;;;;5343239;26;20007;-82
2024/05/08 10:42:38;;;;;;;8.38;5.57;;;;;;;;;;5345710;26;20392;-81
2024/05/08 10:45:04;;;;;;;9.13;7.32;;;;;;;;;;5346333;26;20016;-81
2024/05/08 10:47:34;;;;;;;12.05;8.60;;;;;;;;;;5346623;26;20009;-80
2024/05/08 10:50:01;;;;;;;13.27;8.60;;;;;;;;;;5346423;26;20004;-78
2024/05/08 10:52:28;;;;;;;9.90;8.20;;;;;;;;;;5348343;26;20008;-80
2024/05/08 10:54:58;;;;;;;16.70;8.85;;;;;;;;;;5346351;26;20092;-80
2024/05/08 10:57:28;;;;;;;10.57;8.40;;;;;;;;;;5347690;26;20009;-79
2024/05/08 10:59:55;;;;;;;12.40;6.72;;;;;;;;;;5346904;26;19997;-79
2024/05/08 11:02:21;;;;;;;11.88;6.50;;;;;;;;;;5350417;26;19997;-82
2024/05/08 11:04:47;;;;;;;10.75;6.88;;;;;;;;;;5350775;26;20004;-79
2024/05/08 11:07:13;;;;;;;6.10;4.03;;;;;;;;;;5349009;26;20011;-79
2024/05/08 11:09:43;;;;;;;14.18;8.25;;;;;;;;;;5347649;26;20009;-79
2024/05/08 11:12:10;;;;;;;4.80;2.75;;;;;;;;;;5348340;26;20000;-79
2024/05/08 11:14:41;;;;;;;9.02;6.68;;;;;;;;;;5348551;26;20448;-82
2024/05/08 11:17:07;;;;;;;12.38;6.88;;;;;;;;;;5346925;26;20008;-80
2024/05/08 11:19:33;;;;;;;9.57;6.13;;;;;;;;;;5347263;26;20028;-79
2024/05/08 11:21:59;;;;;;;5.78;4.75;;;;;;;;;;5348926;26;20076;-81
2024/05/08 11:24:25;;;;;;;9.85;6.22;;;;;;;;;;5346846;26;20083;-81
2024/05/08 11:26:51;;;;;;;9.68;8.07;;;;;;;;;;5348967;26;20511;-81
2024/05/08 11:29:17;;;;;;;6.50;4.78;;;;;;;;;;5346493;26;20008;-82
2024/05/08 11:31:43;;;;;;;9.82;6.78;;;;;;;;;;5347526;26;20356;-81
2024/05/08 11:34:09;;;;;;;4.85;3.35;;;;;;;;;;5348720;26;20021;-79
2024/05/08 11:36:37;;;;;;;7.18;6.47;;;;;;;;;;5363278;26;20007;-82
2024/05/08 11:39:03;;;;;;;6.93;6.22;;;;;;;;;;5383738;26;19996;-85
2024/05/08 11:41:29;;;;;;;6.90;4.10;;;;;;;;;;5383055;26;20072;-80
2024/05/08 11:43:58;;;;;;;8.15;4.60;;;;;;;;;;5383418;26;20007;-81
2024/05/08 11:46:24;;;;;;;11.57;5.75;;;;;;;;;;5385240;26;20076;-80
2024/05/08 11:48:51;;;;;;;6.70;4.28;;;;;;;;;;5386705;26;20395;-79
2024/05/08 11:51:17;;;;;;;8.70;5.90;;;;;;;;;;5387240;26;20087;-79
2024/05/08 11:53:44;;;;;;;6.18;4.22;;;;;;;;;;5387613;26;20008;-82
2024/05/08 11:56:10;;;;;;;6.07;4.57;;;;;;;;;;5358233;26;20000;-79
2024/05/08 11:58:36;;;;;;;6.55;4.60;;;;;;;;;;5386482;26;19996;-78
2024/05/08 12:01:02;;;;;;;8.68;4.05;;;;;;;;;;5387855;26;20036;-79
2024/05/08 12:03:28;;;;;;;4.75;2.20;;;;;;;;;;5387303;26;20004;-82
2024/05/08 12:05:54;;;;;;;6.68;3.90;;;;;;;;;;5385864;26;19996;-78
2024/05/08 12:08:20;;;;;;;6.35;2.38;;;;;;;;;;5385794;26;20069;-82
2024/05/08 12:10:47;;;;;;;6.00;3.88;;;;;;;;;;5386402;26;20340;-82
2024/05/08 12:13:13;;;;;;;5.82;4.00;;;;;;;;;;5384576;26;19996;-79
2024/05/08 12:15:41;;;;;;;5.60;4.18;;;;;;;;;;5386056;26;20433;-80
2024/05/08 12:18:07;;;;;;;5.93;2.72;;;;;;;;;;5383828;26;19992;-78
2024/05/08 12:20:33;;;;;;;8.50;5.00;;;;;;;;;;5385928;26;20445;-78
2024/05/08 12:22:59;;;;;;;7.38;4.80;;;;;;;;;;5383453;26;20003;-79
2024/05/08 12:25:25;;;;;;;8.70;3.70;;;;;;;;;;5385880;26;20000;-82
2024/05/08 12:27:53;;;;;;;9.00;4.63;;;;;;;;;;5385659;26;20008;-79
2024/05/08 12:30:19;;;;;;;6.25;5.07;;;;;;;;;;5388635;26;20448;-86
2024/05/08 12:32:45;;;;;;;9.10;3.28;;;;;;;;;;5390528;26;20464;-81
2024/05/08 12:35:11;;;;;;;10.60;6.68;;;;;;;;;;5387954;26;20000;-81
2024/05/08 12:37:37;;;;;;;7.32;6.20;;;;;;;;;;5384710;26;20016;-84
2024/05/08 12:40:04;;;;;;;6.57;2.88;;;;;;;;;;5385834;26;20036;-79
2024/05/08 12:42:30;;;;;;;8.57;6.93;;;;;;;;;;5384618;26;20004;-78
2024/05/08 12:44:56;;;;;;;8.57;6.82;;;;;;;;;;5384037;26;19996;-81
2024/05/08 12:47:24;;;;;;;6.68;3.90;;;;;;;;;;5386271;26;20356;-78
2024/05/08 12:49:50;;;;;;;7.93;6.25;;;;;;;;;;5384677;26;19996;-82
2024/05/08 12:52:17;;;;;;;6.43;4.57;;;;;;;;;;5385947;26;20024;-82
2024/05/08 12:54:43;;;;;;;6.18;4.75;;;;;;;;;;5385906;26;20011;-85
2024/05/08 12:57:09;;;;;;;5.47;4.28;;;;;;;;;;5386291;26;19996;-81
2024/05/08 12:59:35;;;;;;;4.80;3.75;;;;;;;;;;5387430;26;20006;-82
2024/05/08 13:02:01;;;;;;;4.35;2.80;;;;;;;;;;5356901;26;20144;-80
2024/05/08 13:04:29;;;;;;;2.80;2.15;;;;;;;;;;5386725;26;20007;-83
2024/05/08 13:06:55;;;;;;;6.05;2.80;;;;;;;;;;5387634;26;19992;-80
2024/05/08 13:09:21;;;;;;;5.82;4.20;;;;;;;;;;5386664;26;20011;-81
2024/05/08 13:11:48;;;;;;;6.45;3.83;;;;;;;;;;5382856;26;20065;-79
2024/05/08 13:14:14;;;;;;;6.63;4.45;;;;;;;;;;5384922;26;20006;-81
2024/05/08 13:16:40;;;;;;;3.25;1.63;;;;;;;;;;5383798;26;19996;-80
2024/05/08 13:19:06;;;;;;;7.97;2.85;;;;;;;;;;5383707;26;20068;-78
2024/05/08 13:21:33;;;;;;;8.05;3.80;;;;;;;;;;5385442;26;20001;-80
2024/05/08 13:23:59;;;;;;;5.57;3.78;;;;;;;;;;5386076;26;19996;-80
2024/05/08 13:26:25;;;;;;;7.28;3.80;;;;;;;;;;5383718;26;19996;-78
2024/05/08 13:28:51;;;;;;;4.85;3.42;;;;;;;;;;5385126;26;20003;-86
2024/05/08 13:31:26;;;;;;;3.80;2.35;;;;;;;;;;5388196;26;20029;-79
2024/05/08 13:33:52;;;;;;;7.93;3.42;;;;;;;;;;5354796;26;20003;-78
2024/05/08 13:36:18;;;;;;;4.38;2.65;;;;;;;;;;5379047;26;19997;-82
2024/05/08 13:38:45;;;;;;;6.32;3.22;;;;;;;;;;5356327;26;20004;-82
2024/05/08 13:41:11;;;;;;;5.18;2.97;;;;;;;;;;5361963;26;20005;-85
2024/05/08 13:43:37;;;;;;;5.28;2.55;;;;;;;;;;5359772;26;20004;-88
2024/05/08 13:46:04;;;;;;;7.60;4.20;;;;;;;;;;5364667;26;20051;-88
2024/05/08 13:48:33;;;;;;;4.20;3.47;;;;;;;;;;5365966;26;20008;-88
2024/05/08 13:50:59;;;;;;;4.35;3.17;;;;;;;;;;5361982;26;20033;-87
2024/05/08 13:53:28;;;;;;;4.85;3.85;;;;;;;;;;5360277;26;20001;-87
2024/05/08 13:55:54;;;;;;;7.82;3.65;;;;;;;;;;5358045;26;20062;-88
2024/05/08 13:58:20;;;;;;;7.00;2.70;;;;;;;;;;5352922;26;19997;-87
2024/05/08 14:00:46;;;;;;;3.50;2.38;;;;;;;;;;5353011;26;20011;-87
2024/05/08 14:03:13;;;;;;;4.60;2.88;;;;;;;;;;5358882;26;20005;-91
2024/05/08 14:05:39;;;;;;;4.88;2.65;;;;;;;;;;5356174;26;20000;-87
2024/05/08 14:08:07;;;;;;;4.47;2.45;;;;;;;;;;5352401;26;20000;-87
2024/05/08 14:10:33;;;;;;;5.65;4.30;;;;;;;;;;5354475;26;19993;-89
2024/05/08 14:12:59;;;;;;;6.38;4.40;;;;;;;;;;5353545;26;20007;-89
2024/05/08 14:15:25;;;;;;;4.95;3.53;;;;;;;;;;5355920;26;19997;-87
2024/05/08 14:17:51;;;;;;;6.63;3.40;;;;;;;;;;5355159;26;20001;-86
2024/05/08 14:20:18;;;;;;;5.07;2.78;;;;;;;;;;5355503;26;20012;-87
2024/05/08 14:22:48;;;;;;;6.45;3.88;;;;;;;;;;5353768;26;20004;-87
2024/05/08 14:25:15;;;;;;;7.43;4.22;;;;;;;;;;5355747;26;19997;-85
2024/05/08 14:27:41;;;;;;;7.13;3.60;;;;;;;;;;5358089;26;19997;-87
2024/05/08 14:30:07;;;;;;;5.75;3.70;;;;;;;;;;5359043;26;20040;-88
2024/05/08 14:32:36;;;;;;;7.03;4.05;;;;;;;;;;5357324;26;19997;-89
2024/05/08 14:35:03;;;;;;;2.70;1.67;;;;;;;;;;5353067;26;19997;-87
2024/05/08 14:37:29;;;;;;;7.20;3.97;;;;;;;;;;5376666;26;20458;-88
2024/05/08 14:39:55;;;;;;;4.35;2.30;;;;;;;;;;5388449;26;20031;-87
2024/05/08 14:42:21;;;;;;;5.45;2.33;;;;;;;;;;5387089;26;20008;-88
2024/05/08 14:44:47;;;;;;;9.48;4.68;;;;;;;;;;5387585;26;20032;-86
2024/05/08 14:47:13;;;;;;;6.22;3.70;;;;;;;;;;5379087;26;20015;-86